Impacts METAR Board INFO
IDs:

KBWI - Baltimore-Washington, MD, US

Updated at: 0326 UTC 19 Feb 2018
Potential Impact None Slight Moderate High
Time18/15Z 18/16Z 18/17Z 18/18Z 18/19Z 18/20Z 18/21Z 18/22Z 18/23Z 19/00Z 19/01Z 19/02Z 19/03Z
VIS5 8 10 10 10 10 10 10 10 10 10 10 10
CIG50 48 -- 38 42 41 250 250 -- -- -- -- --
CoverBKNBKNSCTBKNBKNBKNBKNBKNSCTSCTFEWFEWFEW
FltCatMVFRVFRVFRVFRVFRVFRVFRVFRVFRVFRVFRVFRVFR
WXBR------------------------
WDir00260290290280250270000140240
WSpd0 0 5 12 10 7 5 3 0 0 0 4 3
WGst-- -- -- 18 -- -- -- -- -- -- -- -- --
Raw hourly METARs
KBWI 181454Z 00000KT 5SM BR FEW040 BKN050 02/02 A3037 RMK AO2 SLP287 T00170017 51052
KBWI 181554Z 00000KT 8SM SCT038 BKN048 04/02 A3039 RMK AO2 SLP294 T00440022
KBWI 181654Z 26005KT 10SM SCT025 SCT047 06/02 A3041 RMK AO2 SLP297 T00610017
KBWI 181754Z 29012G18KT 10SM BKN038 BKN250 07/M01 A3040 RMK AO2 SLP295 I6000 T00671006 10067 21006 50009
KBWI 181854Z 29010KT 10SM BKN042 BKN250 08/01 A3039 RMK AO2 SLP292 T00780006
KBWI 181954Z 28007KT 10SM BKN041 BKN250 08/00 A3040 RMK AO2 SLP293 T00830000
KBWI 182054Z 25005KT 10SM SCT040 BKN250 08/M01 A3041 RMK AO2 SLP297 T00781006 53002
KBWI 182154Z 27003KT 10SM BKN250 08/M01 A3042 RMK AO2 SLP300 T00831006
KBWI 182254Z 00000KT 10SM SCT250 07/M02 A3043 RMK AO2 SLP305 T00721017
KBWI 182354Z 00000KT 10SM SCT250 05/M01 A3044 RMK AO2 SLP309 T00501011 10089 20050 51010
KBWI 190054Z 00000KT 10SM FEW250 03/M01 A3044 RMK AO2 SLP309 T00281006
KBWI 190154Z 14004KT 10SM FEW250 02/M01 A3045 RMK AO2 SLP314 T00171006
KBWI 190254Z 24003KT 10SM FEW150 01/M01 A3048 RMK AO2 SLP324 T00061011 53015